Time;durP1;ratioP1;P1;durP2;ratioP2;P2;SDS_P1;SDS_P2;PMS_P1;PMS_P2;Temp;Humidity;BMP_temperature;BMP_pressure;BME280_temperature;BME280_humidity;BME280_pressure;Samples;Min_cycle;Max_cycle;Signal;HPM_P1;HPM_P2
2022/11/30 00:01:54;;;;;;;35.67;25.95;;;;;;;-8.61;79.06;102190.69;5028606;28;20032;-62
2022/11/30 00:04:20;;;;;;;39.92;27.40;;;;;;;-8.95;80.12;102176.50;5033075;28;20219;-63
2022/11/30 00:06:45;;;;;;;39.33;27.55;;;;;;;-9.07;80.11;102172.06;5024376;28;20102;-63
2022/11/30 00:09:12;;;;;;;40.17;25.10;;;;;;;-9.18;79.94;102187.69;5039325;28;20032;-63
2022/11/30 00:11:38;;;;;;;37.58;26.10;;;;;;;-8.96;80.74;102187.28;5035225;28;20021;-63
2022/11/30 00:14:03;;;;;;;37.50;26.73;;;;;;;-9.02;79.54;102178.44;5037496;28;20141;-63
2022/11/30 00:16:29;;;;;;;38.88;25.60;;;;;;;-8.83;79.48;102189.34;5025394;28;20266;-63
2022/11/30 00:18:54;;;;;;;39.50;25.42;;;;;;;-8.92;79.15;102187.75;5044091;28;20029;-63
2022/11/30 00:21:20;;;;;;;36.40;25.48;;;;;;;-8.92;79.22;102182.72;5031752;28;20026;-62
2022/11/30 00:23:47;;;;;;;38.63;25.48;;;;;;;-9.16;80.03;102175.28;5032246;28;20041;-63
2022/11/30 00:26:15;;;;;;;35.08;25.00;;;;;;;-9.24;79.32;102177.06;5023605;28;20029;-62
2022/11/30 00:28:41;;;;;;;36.63;25.90;;;;;;;-9.19;79.26;102173.38;5026913;28;20360;-63
2022/11/30 00:31:10;;;;;;;37.63;25.58;;;;;;;-9.17;80.31;102173.53;5043740;28;20040;-64
2022/11/30 00:33:37;;;;;;;37.78;23.85;;;;;;;-9.42;80.18;102171.09;5024867;28;20328;-62
2022/11/30 00:36:06;;;;;;;37.20;25.13;;;;;;;-9.20;81.06;102171.59;5037830;28;20021;-62
2022/11/30 00:38:33;;;;;;;34.05;24.50;;;;;;;-9.22;81.04;102181.50;5033581;28;20234;-63
2022/11/30 00:40:59;;;;;;;37.47;25.42;;;;;;;-9.17;79.57;102176.03;5028172;28;20190;-63
2022/11/30 00:43:25;;;;;;;33.92;24.27;;;;;;;-9.16;79.45;102165.25;5042759;28;20314;-63
2022/11/30 00:45:51;;;;;;;33.75;23.70;;;;;;;-9.61;80.44;102129.13;5023747;28;20040;-63
2022/11/30 00:48:16;;;;;;;33.67;24.23;;;;;;;-9.22;80.92;102166.44;5054531;28;20025;-62
2022/11/30 00:50:42;;;;;;;33.45;23.35;;;;;;;-9.08;80.75;102170.28;5032271;28;20033;-62
2022/11/30 00:53:07;;;;;;;31.55;23.05;;;;;;;-9.17;79.64;102178.56;5045460;28;20025;-62
2022/11/30 00:55:33;;;;;;;35.20;24.33;;;;;;;-9.02;79.58;102165.88;5035223;28;20025;-63
2022/11/30 00:58:00;;;;;;;32.75;22.60;;;;;;;-8.85;79.90;102169.13;5029576;28;20063;-63
2022/11/30 01:00:26;;;;;;;33.63;23.70;;;;;;;-8.96;79.48;102173.13;5040272;28;20366;-63
2022/11/30 01:02:58;;;;;;;32.50;23.05;;;;;;;-9.08;78.66;102164.38;5030736;28;20093;-63
2022/11/30 01:05:23;;;;;;;;;;;;;;;-8.99;79.96;102165.28;5022878;28;20310;-63
2022/11/30 01:07:49;;;;;;;36.17;22.02;;;;;;;-9.06;78.57;102160.41;5025980;28;19905;-63
2022/11/30 01:10:15;;;;;;;31.80;22.30;;;;;;;-8.96;79.83;102165.59;5041434;28;20025;-64
2022/11/30 01:12:40;;;;;;;32.55;21.23;;;;;;;-8.95;78.67;102161.44;5023337;28;20080;-63
2022/11/30 01:15:06;;;;;;;31.60;21.55;;;;;;;-9.04;78.43;102171.47;5022715;28;20046;-63
2022/11/30 01:17:33;;;;;;;30.48;21.40;;;;;;;-9.00;79.62;102148.44;5029369;28;20041;-64
2022/11/30 01:19:59;;;;;;;32.85;21.35;;;;;;;-8.89;79.45;102162.94;5037677;28;20315;-63
2022/11/30 01:22:24;;;;;;;28.65;20.67;;;;;;;-8.76;78.39;102154.09;5033187;28;20037;-62
2022/11/30 01:24:50;;;;;;;29.52;21.23;;;;;;;-8.62;78.20;102165.44;5043042;28;20026;-64
2022/11/30 01:27:16;;;;;;;30.40;20.80;;;;;;;-8.79;78.22;102158.78;5027397;28;20279;-63
2022/11/30 01:29:41;;;;;;;32.60;21.45;;;;;;;-8.95;78.05;102161.44;5034061;28;20036;-65
2022/11/30 01:32:07;;;;;;;30.50;20.33;;;;;;;-9.08;79.38;102160.22;5036624;28;20034;-63
2022/11/30 01:34:33;;;;;;;32.00;20.48;;;;;;;-9.15;79.08;102159.50;5030403;28;20030;-63
2022/11/30 01:36:59;;;;;;;29.67;19.67;;;;;;;-8.99;78.57;102165.28;5023103;28;20030;-65
2022/11/30 01:39:24;;;;;;;29.33;20.15;;;;;;;-8.96;78.73;102160.56;5039489;28;20029;-63
2022/11/30 01:41:52;;;;;;;34.42;20.85;;;;;;;-9.02;78.40;102154.94;5041483;28;20360;-62
2022/11/30 01:44:17;;;;;;;30.58;20.38;;;;;;;-8.87;79.20;102170.59;5042306;28;20030;-63
2022/11/30 01:46:51;;;;;;;29.63;19.38;;;;;;;-8.93;79.18;102173.41;5039997;28;20069;-63
2022/11/30 01:49:36;;;;;;;28.58;18.48;;;;;;;-8.96;78.84;102155.53;5022960;28;20049;-62
2022/11/30 01:52:04;;;;;;;28.73;19.88;;;;;;;-8.86;78.39;102158.19;5022480;28;20030;-63
2022/11/30 01:54:51;;;;;;;27.67;19.67;;;;;;;-8.94;78.02;102151.53;5022620;28;20034;-63
2022/11/30 01:57:35;;;;;;;26.85;17.58;;;;;;;-9.19;77.86;102145.78;5038167;28;20088;-64
2022/11/30 02:00:06;;;;;;;26.30;18.55;;;;;;;-8.97;77.87;102147.88;5029135;28;20026;-65
2022/11/30 02:03:03;;;;;;;25.63;18.88;;;;;;;-9.22;78.87;102141.34;5022569;28;20065;-63
2022/11/30 02:05:31;;;;;;;25.60;17.85;;;;;;;-9.05;79.10;102135.47;5032102;28;20042;-63
2022/11/30 02:07:57;;;;;;;28.35;19.92;;;;;;;-8.77;78.48;102157.31;5027004;28;20057;-63
2022/11/30 02:10:27;;;;;;;24.40;18.33;;;;;;;-8.92;78.06;102135.03;5031963;28;20040;-64
2022/11/30 02:13:20;;;;;;;30.35;19.15;;;;;;;-8.95;77.42;102154.81;5022726;28;20022;-63
2022/11/30 02:15:58;;;;;;;30.35;19.73;;;;;;;-9.27;77.54;102119.94;5041732;28;20302;-64
2022/11/30 02:18:43;;;;;;;28.35;19.95;;;;;;;-9.09;78.72;102145.94;5042111;28;20029;-64
2022/11/30 02:21:24;;;;;;;30.92;20.80;;;;;;;-9.00;77.46;102153.47;5029416;28;20026;-64
2022/11/30 02:23:53;;;;;;;27.67;19.65;;;;;;;-9.18;78.04;102152.56;5031036;28;20038;-65
2022/11/30 02:26:56;;;;;;;30.52;19.67;;;;;;;-9.08;78.36;102141.78;5024246;28;20329;-64
2022/11/30 02:29:27;;;;;;;32.70;20.77;;;;;;;-9.11;77.25;102149.91;5033634;28;20037;-64
2022/11/30 02:32:22;;;;;;;30.40;21.42;;;;;;;-9.05;78.47;102148.00;5042430;28;20030;-64
2022/11/30 02:34:49;;;;;;;27.50;20.73;;;;;;;-9.02;76.70;102154.94;5028537;28;20109;-63
2022/11/30 02:37:17;;;;;;;28.95;21.00;;;;;;;-9.05;77.25;102152.13;5045874;28;20037;-64
2022/11/30 02:39:43;;;;;;;28.67;21.35;;;;;;;-9.00;78.19;102145.94;5027334;28;20317;-64
2022/11/30 02:42:13;;;;;;;26.90;19.17;;;;;;;-9.05;77.00;102127.94;5039676;28;20029;-64
2022/11/30 02:44:45;;;;;;;27.67;18.95;;;;;;;-9.08;76.88;102110.03;5036397;28;20085;-63
2022/11/30 02:47:17;;;;;;;34.67;21.60;;;;;;;-9.06;77.23;102106.06;5029049;28;20025;-63
2022/11/30 02:49:42;;;;;;;;;;;;;;;-9.09;77.05;102135.00;5028366;28;20028;-63
2022/11/30 02:52:10;;;;;;;31.20;21.90;;;;;;;-9.39;76.79;102073.56;5045533;28;19944;-63
2022/11/30 02:54:35;;;;;;;28.90;22.38;;;;;;;-8.91;77.04;102120.84;5027915;28;20034;-63
2022/11/30 02:57:01;;;;;;;30.90;22.27;;;;;;;-9.19;77.60;102133.25;5038268;28;20033;-62
2022/11/30 02:59:27;;;;;;;31.48;22.55;;;;;;;-9.21;77.74;102125.53;5037280;28;20250;-63
2022/11/30 03:01:53;;;;;;;39.72;22.67;;;;;;;-9.20;76.99;102133.97;5025527;28;20037;-62
2022/11/30 03:04:19;;;;;;;29.98;21.80;;;;;;;-9.25;76.18;102131.00;5035581;28;20071;-61
2022/11/30 03:06:44;;;;;;;32.33;22.23;;;;;;;-9.06;76.24;102136.19;5045392;28;20048;-64
2022/11/30 03:09:10;;;;;;;30.75;22.13;;;;;;;-9.06;76.57;102137.81;5030885;28;20026;-63
2022/11/30 03:11:35;;;;;;;30.63;22.08;;;;;;;-9.19;77.42;102135.75;5035280;28;20030;-63
2022/11/30 03:14:02;;;;;;;29.33;20.42;;;;;;;-9.15;78.07;102142.81;5025192;28;20052;-64
2022/11/30 03:16:28;;;;;;;30.55;21.38;;;;;;;-9.39;76.25;102131.25;5025096;28;20048;-63
2022/11/30 03:18:53;;;;;;;31.02;22.63;;;;;;;-9.34;77.39;102135.13;5044903;28;20029;-64
2022/11/30 03:21:19;;;;;;;31.90;21.52;;;;;;;-9.25;78.50;102138.53;5040385;28;20334;-65
2022/11/30 03:23:44;;;;;;;30.02;21.45;;;;;;;-9.47;78.05;102138.03;5035361;28;20029;-63
2022/11/30 03:26:10;;;;;;;30.38;22.42;;;;;;;-9.52;76.63;102136.69;5038024;28;20037;-63
2022/11/30 03:28:36;;;;;;;28.70;21.38;;;;;;;-9.63;76.81;102127.22;5025639;28;20049;-63
2022/11/30 03:31:02;;;;;;;31.63;20.95;;;;;;;-9.61;77.91;102144.19;5044665;28;20025;-65
2022/11/30 03:33:28;;;;;;;31.67;21.90;;;;;;;-9.62;78.36;102136.50;5028885;28;20263;-64
2022/11/30 03:36:04;;;;;;;28.33;20.48;;;;;;;-9.69;77.16;102119.09;5036312;28;20051;-63
2022/11/30 03:38:31;;;;;;;28.45;20.38;;;;;;;-9.44;77.05;102127.44;5036373;28;20030;-63
2022/11/30 03:41:09;;;;;;;30.58;20.67;;;;;;;-9.58;76.40;102123.56;5028260;28;20211;-63
2022/11/30 03:43:35;;;;;;;26.95;19.30;;;;;;;-9.63;76.96;102138.16;5041209;28;20059;-64
2022/11/30 03:46:01;;;;;;;28.95;20.30;;;;;;;-9.42;77.86;102136.88;5043087;28;20021;-63
2022/11/30 03:48:26;;;;;;;26.73;20.60;;;;;;;-9.51;77.07;102140.09;5028271;28;20061;-64
2022/11/30 03:50:52;;;;;;;29.90;20.23;;;;;;;-9.59;76.29;102147.75;5024713;28;20034;-63
2022/11/30 03:53:20;;;;;;;33.20;20.70;;;;;;;-9.49;76.69;102149.56;5030824;28;20045;-64
2022/11/30 03:55:50;;;;;;;30.48;21.30;;;;;;;-9.55;77.71;102147.31;5041445;28;20124;-64
2022/11/30 03:58:15;;;;;;;31.38;19.48;;;;;;;-9.52;76.06;102134.19;5024257;28;20036;-63
2022/11/30 04:00:41;;;;;;;28.33;20.60;;;;;;;-9.70;77.86;102135.75;5042075;28;20017;-66
2022/11/30 04:03:06;;;;;;;30.10;20.80;;;;;;;-9.66;77.00;102132.84;5031161;28;20072;-65
2022/11/30 04:05:32;;;;;;;32.88;22.52;;;;;;;-9.66;77.08;102131.94;5024432;28;20034;-64
2022/11/30 04:07:58;;;;;;;29.50;22.33;;;;;;;-9.56;78.23;102139.66;5042699;28;20026;-65
2022/11/30 04:10:23;;;;;;;32.50;22.30;;;;;;;-9.62;76.95;102144.03;5043623;28;20040;-64
2022/11/30 04:12:49;;;;;;;30.77;22.70;;;;;;;-9.60;77.69;102132.56;5025252;28;20036;-64
2022/11/30 04:15:15;;;;;;;32.42;22.45;;;;;;;-9.51;78.00;102140.97;5024262;28;20042;-64
2022/11/30 04:17:40;;;;;;;31.52;22.83;;;;;;;-9.65;77.22;102141.22;5033253;28;20071;-65
2022/11/30 04:20:06;;;;;;;31.75;22.25;;;;;;;-9.68;77.88;102136.78;5039345;28;20041;-67
2022/11/30 04:22:32;;;;;;;32.20;22.05;;;;;;;-9.65;76.40;102143.72;5036431;28;20040;-66
2022/11/30 04:24:58;;;;;;;35.00;22.08;;;;;;;-9.75;76.67;102149.44;5023968;28;20037;-65
2022/11/30 04:27:24;;;;;;;30.98;22.80;;;;;;;-9.77;77.47;102125.88;5027350;28;20217;-64
2022/11/30 04:29:50;;;;;;;31.73;21.33;;;;;;;-9.73;77.27;102135.47;5033221;28;20034;-64
2022/11/30 04:32:15;;;;;;;31.77;22.35;;;;;;;-9.82;77.77;102132.91;5028985;28;20306;-65
2022/11/30 04:34:41;;;;;;;30.88;21.17;;;;;;;-9.85;76.25;102139.25;5042477;28;20017;-65
2022/11/30 04:37:06;;;;;;;31.30;21.35;;;;;;;-9.53;76.81;102142.47;5023732;28;20210;-65
2022/11/30 04:39:33;;;;;;;32.28;21.90;;;;;;;-9.43;76.52;102145.13;5038338;28;20032;-64
2022/11/30 04:41:59;;;;;;;29.23;21.65;;;;;;;-9.62;76.49;102137.41;5035083;28;20096;-65
2022/11/30 04:44:24;;;;;;;29.88;21.70;;;;;;;-9.63;78.08;102137.25;5036628;28;20079;-65
2022/11/30 04:46:50;;;;;;;33.00;21.30;;;;;;;-9.75;78.29;102147.84;5026855;28;20014;-64
2022/11/30 04:49:15;;;;;;;30.75;21.58;;;;;;;-9.84;77.08;102153.56;5022918;28;20214;-65
2022/11/30 04:51:41;;;;;;;32.42;22.45;;;;;;;-9.74;78.37;102143.72;5023647;28;20030;-65
2022/11/30 04:54:07;;;;;;;29.95;21.60;;;;;;;-9.86;78.29;102129.94;5035416;28;20037;-64
2022/11/30 04:56:32;;;;;;;34.08;21.40;;;;;;;-9.76;76.99;102152.69;5035311;28;20036;-65
2022/11/30 04:59:00;;;;;;;30.45;21.95;;;;;;;-10.00;77.13;102131.97;5023426;28;20021;-64
2022/11/30 05:01:26;;;;;;;31.98;21.63;;;;;;;-10.05;78.00;102158.16;5023310;28;20093;-65
2022/11/30 05:03:51;;;;;;;33.42;22.27;;;;;;;-10.00;77.99;102167.03;5024300;28;20018;-64
2022/11/30 05:06:17;;;;;;;31.83;21.48;;;;;;;-10.09;77.38;102166.09;5022964;28;20022;-65
2022/11/30 05:08:43;;;;;;;31.15;20.85;;;;;;;-10.09;78.94;102169.50;5023126;28;20022;-64
2022/11/30 05:11:08;;;;;;;28.02;21.23;;;;;;;-10.08;78.11;102151.22;5022973;28;20077;-64
2022/11/30 05:13:34;;;;;;;33.15;21.70;;;;;;;-10.03;77.57;102161.72;5023153;28;20225;-64
2022/11/30 05:15:59;;;;;;;33.13;22.25;;;;;;;-10.14;77.70;102172.28;5042220;28;20029;-64
2022/11/30 05:18:25;;;;;;;34.70;21.65;;;;;;;-10.31;78.23;102165.53;5027947;28;20032;-64
2022/11/30 05:20:52;;;;;;;30.25;20.65;;;;;;;-10.28;78.33;102160.84;5033188;28;20021;-64
2022/11/30 05:23:18;;;;;;;35.60;21.48;;;;;;;-10.26;79.75;102164.38;5029683;28;20025;-64
2022/11/30 05:25:44;;;;;;;33.78;22.00;;;;;;;-10.53;78.93;102154.94;5041910;28;20025;-63
2022/11/30 05:28:11;;;;;;;27.70;20.38;;;;;;;-10.16;77.77;102158.69;5021734;28;20068;-64
2022/11/30 05:30:38;;;;;;;33.03;22.58;;;;;;;-10.11;77.91;102155.91;5038961;28;20079;-64
2022/11/30 05:33:04;;;;;;;27.40;19.88;;;;;;;-9.84;78.12;102148.53;5030975;28;20053;-67
2022/11/30 05:35:29;;;;;;;29.15;21.08;;;;;;;-9.92;78.21;102160.28;5029856;28;20026;-63
2022/11/30 05:37:55;;;;;;;30.60;22.20;;;;;;;-9.98;76.81;102155.53;5026180;28;20034;-63
2022/11/30 05:40:21;;;;;;;34.40;23.90;;;;;;;-10.05;75.99;102165.69;5042417;28;20033;-64
2022/11/30 05:42:46;;;;;;;33.55;23.45;;;;;;;-10.07;77.07;102157.13;5025901;28;20030;-64
2022/11/30 05:45:12;;;;;;;35.90;23.05;;;;;;;-10.08;77.18;102170.38;5029953;28;20033;-63
2022/11/30 05:47:37;;;;;;;31.42;21.67;;;;;;;-10.01;78.87;102177.78;5022871;28;20037;-64
2022/11/30 05:50:04;;;;;;;32.78;23.25;;;;;;;-9.98;76.83;102180.59;5025984;28;20032;-63
2022/11/30 05:52:29;;;;;;;35.00;23.92;;;;;;;-10.19;76.48;102180.91;5032598;28;20076;-63
2022/11/30 05:54:55;;;;;;;34.65;24.63;;;;;;;-10.11;77.69;102173.44;5041099;28;20037;-64
2022/11/30 05:57:21;;;;;;;32.83;23.88;;;;;;;-10.09;78.56;102176.13;5028267;28;20078;-63
2022/11/30 05:59:46;;;;;;;31.92;22.92;;;;;;;-10.21;78.15;102194.91;5027948;28;20226;-64
2022/11/30 06:02:12;;;;;;;33.72;23.02;;;;;;;-10.31;76.88;102186.44;5025870;28;20081;-63
2022/11/30 06:04:37;;;;;;;34.38;23.95;;;;;;;-10.24;78.33;102186.34;5039448;28;20316;-64
2022/11/30 06:07:03;;;;;;;32.33;23.15;;;;;;;-10.14;78.00;102188.19;5046337;28;20029;-64
2022/11/30 06:09:29;;;;;;;30.70;22.98;;;;;;;-10.33;78.12;102189.50;5045218;28;20359;-63
2022/11/30 06:11:54;;;;;;;34.33;23.67;;;;;;;-10.37;78.22;102178.34;5036739;28;20140;-64
2022/11/30 06:14:20;;;;;;;34.40;23.40;;;;;;;-10.08;78.48;102197.94;5040685;28;20048;-64
2022/11/30 06:16:45;;;;;;;32.95;23.25;;;;;;;-10.11;76.39;102192.63;5026919;28;20377;-63
2022/11/30 06:19:11;;;;;;;30.20;22.50;;;;;;;-10.38;79.11;102194.09;5045983;28;20036;-64
2022/11/30 06:21:36;;;;;;;31.02;22.48;;;;;;;-10.27;76.76;102195.19;5035072;28;20044;-64
2022/11/30 06:24:02;;;;;;;32.40;23.58;;;;;;;-10.35;78.38;102191.91;5034958;28;20333;-63
2022/11/30 06:26:28;;;;;;;31.00;21.90;;;;;;;-10.38;78.75;102199.09;5026046;28;20040;-63
2022/11/30 06:28:53;;;;;;;35.08;23.65;;;;;;;-10.16;78.26;102198.75;5027527;28;20029;-64
2022/11/30 06:31:19;;;;;;;34.25;22.98;;;;;;;-10.27;78.29;102200.19;5026331;28;20360;-63
2022/11/30 06:33:45;;;;;;;32.78;22.67;;;;;;;-10.11;78.41;102206.03;5027590;28;20068;-64
2022/11/30 06:36:10;;;;;;;33.88;22.70;;;;;;;-10.20;77.98;102205.09;5033011;28;20037;-64
2022/11/30 06:38:36;;;;;;;34.42;23.65;;;;;;;-10.11;77.53;102210.16;5033748;28;20041;-66
2022/11/30 06:41:07;;;;;;;31.38;22.90;;;;;;;-10.21;76.80;102184.91;5032267;28;20033;-65
2022/11/30 06:43:38;;;;;;;36.63;24.02;;;;;;;-10.12;76.73;102191.72;5028276;28;20041;-63
2022/11/30 06:46:05;;;;;;;33.20;23.53;;;;;;;-9.95;77.64;102203.47;5028194;28;20068;-63
2022/11/30 06:48:31;;;;;;;39.00;24.35;;;;;;;-10.20;78.07;102209.19;5033248;28;20060;-64
2022/11/30 06:50:57;;;;;;;38.70;24.35;;;;;;;-10.27;78.06;102208.56;5035566;28;20025;-63
2022/11/30 06:53:23;;;;;;;34.13;23.52;;;;;;;-10.19;78.36;102198.44;5025558;28;20206;-63
2022/11/30 06:55:49;;;;;;;32.60;23.80;;;;;;;-10.23;78.12;102203.16;5037256;28;20206;-63
2022/11/30 06:58:14;;;;;;;37.47;24.30;;;;;;;-10.16;78.40;102213.78;5030454;28;20040;-64
2022/11/30 07:00:41;;;;;;;40.88;25.15;;;;;;;-10.28;80.16;102208.41;5033304;28;20029;-65
2022/11/30 07:03:07;;;;;;;36.72;24.45;;;;;;;-10.14;78.63;102212.34;5033640;28;20025;-63
2022/11/30 07:05:44;;;;;;;36.25;23.38;;;;;;;-9.92;78.87;102206.31;5025541;28;20072;-64
2022/11/30 07:08:11;;;;;;;35.80;24.55;;;;;;;-9.70;77.95;102218.50;5031498;28;20069;-64
2022/11/30 07:10:45;;;;;;;33.08;24.33;;;;;;;-9.73;78.90;102188.97;5033814;28;20099;-64
2022/11/30 07:13:12;;;;;;;33.50;22.48;;;;;;;-9.65;77.54;102219.81;5027277;28;20041;-63
2022/11/30 07:15:39;;;;;;;40.15;24.40;;;;;;;-9.74;77.50;102208.88;5038831;28;20037;-63
2022/11/30 07:18:05;;;;;;;33.63;23.48;;;;;;;-9.65;78.23;102221.47;5034064;28;20314;-64
2022/11/30 07:20:32;;;;;;;33.60;22.98;;;;;;;-9.34;77.95;102217.03;5032614;28;20045;-65
2022/11/30 07:26:05;;;;;;;35.03;24.77;;;;;;;-9.30;76.92;102214.97;5033661;28;20037;-64
2022/11/30 07:28:27;;;;;;;38.92;23.38;;;;;;;-9.34;77.98;102219.53;5034162;28;20083;-63
2022/11/30 07:30:52;;;;;;;41.22;24.73;;;;;;;-9.46;79.32;102215.06;5042045;28;20253;-64
2022/11/30 07:33:18;;;;;;;39.72;24.27;;;;;;;-9.19;77.54;102221.06;5033674;28;20029;-63
2022/11/30 07:35:43;;;;;;;39.28;24.33;;;;;;;-9.10;77.79;102218.56;5030174;28;20034;-65
2022/11/30 07:38:09;;;;;;;36.63;24.52;;;;;;;-9.02;77.03;102225.19;5032209;28;20096;-65
2022/11/30 07:40:35;;;;;;;40.20;24.40;;;;;;;-9.39;76.96;102209.91;5031704;28;20222;-64
2022/11/30 07:43:00;;;;;;;33.20;23.73;;;;;;;-9.33;77.52;102211.25;5024529;28;20052;-65
2022/11/30 07:45:26;;;;;;;38.10;23.80;;;;;;;-9.13;77.39;102198.19;5027709;28;20025;-65
2022/11/30 07:47:51;;;;;;;39.78;24.63;;;;;;;-8.96;78.20;102219.91;5024965;28;20025;-63
2022/11/30 07:50:17;;;;;;;43.47;24.23;;;;;;;-9.19;78.60;102221.06;5030366;28;20037;-64
2022/11/30 07:52:42;;;;;;;40.05;24.95;;;;;;;-9.06;79.27;102218.13;5038958;28;20025;-65
2022/11/30 07:55:08;;;;;;;38.10;23.25;;;;;;;-9.06;78.28;102205.59;5039421;28;20080;-63
2022/11/30 07:57:34;;;;;;;41.60;24.75;;;;;;;-8.71;77.73;102223.19;5024592;28;20321;-63
2022/11/30 08:00:01;;;;;;;43.13;23.83;;;;;;;-8.55;77.17;102210.50;5014144;28;20087;-65
2022/11/30 08:02:27;;;;;;;35.42;23.67;;;;;;;-8.48;76.54;102211.97;5012192;28;20034;-64
2022/11/30 08:04:56;;;;;;;38.10;24.38;;;;;;;-8.73;76.38;102212.13;5026312;28;20044;-63
2022/11/30 08:07:22;;;;;;;36.72;23.50;;;;;;;-8.85;77.31;102207.69;5044026;28;20076;-65
2022/11/30 08:09:48;;;;;;;40.25;24.30;;;;;;;-8.73;77.07;102210.50;5027168;28;20022;-64
2022/11/30 08:12:13;;;;;;;41.25;24.75;;;;;;;-8.57;76.57;102212.84;5024973;28;20302;-64
2022/11/30 08:14:39;;;;;;;40.17;25.25;;;;;;;-8.89;78.21;102203.09;5029967;28;20037;-64
2022/11/30 08:17:04;;;;;;;40.15;24.95;;;;;;;-8.82;77.92;102208.72;5040452;28;20030;-63
2022/11/30 08:19:31;;;;;;;42.33;26.55;;;;;;;-8.88;78.69;102219.03;5034733;28;20052;-67
2022/11/30 08:21:57;;;;;;;40.55;25.70;;;;;;;-8.65;78.06;102208.72;5029535;28;20030;-64
2022/11/30 08:24:22;;;;;;;39.55;25.52;;;;;;;-8.81;77.10;102197.94;5028028;28;20040;-64
2022/11/30 08:26:51;;;;;;;40.33;25.35;;;;;;;-8.82;78.43;102183.59;5031617;28;21123;-65
2022/11/30 08:29:16;;;;;;;42.38;26.13;;;;;;;-8.77;77.95;102205.91;5032482;28;20065;-65
2022/11/30 08:31:42;;;;;;;38.97;27.30;;;;;;;-8.66;78.13;102206.97;5032514;28;20038;-65
2022/11/30 08:34:12;;;;;;;44.38;27.10;;;;;;;-8.37;77.53;102202.19;5030130;28;20088;-65
2022/11/30 08:36:39;;;;;;;40.92;27.52;;;;;;;-8.34;76.65;102201.59;5034027;28;20113;-64
2022/11/30 08:39:07;;;;;;;40.03;25.90;;;;;;;-8.23;77.00;102185.91;5031809;28;20068;-68
2022/11/30 08:41:34;;;;;;;36.65;26.20;;;;;;;-7.93;75.97;102176.97;5033947;28;20077;-64
2022/11/30 08:44:00;;;;;;;46.75;27.52;;;;;;;-7.64;75.81;102198.91;5033392;28;20025;-64
2022/11/30 08:46:26;;;;;;;37.42;24.20;;;;;;;-7.40;74.65;102199.41;5032511;28;20099;-64
2022/11/30 08:48:52;;;;;;;40.42;25.65;;;;;;;-7.35;75.37;102200.72;5031847;28;20025;-64
2022/11/30 08:51:19;;;;;;;35.85;25.10;;;;;;;-7.31;74.14;102206.19;5032063;28;20060;-65
2022/11/30 08:53:46;;;;;;;41.40;24.92;;;;;;;-7.34;74.46;102202.47;5031692;28;20018;-64
2022/11/30 08:56:24;;;;;;;42.83;25.00;;;;;;;-7.25;75.29;102199.91;5031775;28;20072;-65
2022/11/30 08:58:49;;;;;;;40.80;24.70;;;;;;;-7.23;75.21;102196.78;5037611;28;20044;-65
2022/11/30 09:01:18;;;;;;;43.67;25.33;;;;;;;-7.26;74.60;102175.50;5042070;28;20228;-65
2022/11/30 09:03:45;;;;;;;43.45;25.27;;;;;;;-7.12;75.26;102193.63;5037582;28;20026;-64
2022/11/30 09:06:16;;;;;;;37.42;24.10;;;;;;;-6.86;74.54;102179.09;5046197;28;20029;-63
2022/11/30 09:08:45;;;;;;;41.50;24.80;;;;;;;-6.48;73.40;102189.16;5035439;28;20041;-65
2022/11/30 09:11:22;;;;;;;39.03;23.48;;;;;;;-6.31;73.04;102178.03;5023404;28;20104;-64
2022/11/30 09:13:48;;;;;;;45.00;25.23;;;;;;;-6.35;72.03;102186.09;5023330;28;20298;-64
2022/11/30 09:16:15;;;;;;;42.30;25.10;;;;;;;-6.92;74.76;102189.50;5038679;28;20412;-64
2022/11/30 09:18:42;;;;;;;42.25;24.67;;;;;;;-6.75;75.65;102183.44;5035929;28;20071;-65
2022/11/30 09:21:10;;;;;;;42.40;26.80;;;;;;;-7.08;77.23;102191.38;5033062;28;20029;-65
2022/11/30 09:23:36;;;;;;;44.65;25.70;;;;;;;-6.86;77.19;102187.53;5034495;28;20025;-65
2022/11/30 09:26:05;;;;;;;41.78;25.55;;;;;;;-7.19;77.91;102195.47;5027246;28;20322;-65
2022/11/30 09:28:31;;;;;;;45.65;26.38;;;;;;;-7.22;78.32;102183.47;5022986;28;20021;-64
2022/11/30 09:31:01;;;;;;;43.72;27.35;;;;;;;-7.40;79.62;102181.78;5023113;28;20030;-65
2022/11/30 09:33:28;;;;;;;47.23;27.67;;;;;;;-7.21;79.73;102185.25;5035837;28;20099;-64
2022/11/30 09:36:02;;;;;;;47.92;28.40;;;;;;;-7.23;80.29;102179.16;5037868;28;20033;-65
2022/11/30 09:38:28;;;;;;;45.63;26.88;;;;;;;-6.96;79.36;102185.81;5031685;28;20025;-65
2022/11/30 09:40:56;;;;;;;45.67;27.58;;;;;;;-6.97;79.14;102194.13;5047281;28;20030;-66
2022/11/30 09:43:40;;;;;;;45.75;26.40;;;;;;;-6.84;80.45;102183.53;5030560;28;20042;-65
2022/11/30 09:46:09;;;;;;;47.40;27.27;;;;;;;-6.81;79.06;102186.31;5045526;28;20252;-65
2022/11/30 09:48:41;;;;;;;49.15;27.08;;;;;;;-6.91;80.01;102195.41;5033225;28;20030;-65
2022/11/30 09:51:09;;;;;;;;;;;;;;;-7.04;79.41;102183.34;5026463;28;20045;-65
2022/11/30 09:53:57;;;;;;;46.33;25.92;;;;;;;-7.35;81.13;102146.22;5032314;28;19980;-66
2022/11/30 09:56:36;;;;;;;48.38;27.23;;;;;;;-7.33;80.86;102190.03;5043005;28;20294;-65
2022/11/30 09:59:24;;;;;;;44.50;26.35;;;;;;;-7.20;80.91;102169.38;5027311;28;20433;-64
2022/11/30 10:01:50;;;;;;;50.58;26.10;;;;;;;-7.07;81.38;102175.53;5046767;28;20302;-64
2022/11/30 10:04:24;;;;;;;42.40;26.95;;;;;;;-7.09;80.17;102150.22;5028984;28;20032;-65
2022/11/30 10:06:56;;;;;;;47.15;26.75;;;;;;;-6.95;80.70;102175.00;5026930;28;20022;-64
2022/11/30 10:09:21;;;;;;;40.42;25.00;;;;;;;-6.95;81.59;102175.00;5036082;28;20387;-64
2022/11/30 10:12:35;;;;;;;40.30;23.52;;;;;;;-6.98;81.89;102177.25;5033635;28;20033;-64
2022/11/30 10:15:07;;;;;;;40.78;24.25;;;;;;;-6.98;81.68;102174.72;5036871;28;20057;-64
2022/11/30 10:17:43;;;;;;;37.92;24.30;;;;;;;-7.07;80.86;102173.00;5032790;28;20088;-65
2022/11/30 10:20:24;;;;;;;34.92;23.75;;;;;;;-7.05;81.45;102139.66;5026130;28;20099;-65
2022/11/30 10:23:14;;;;;;;36.60;24.27;;;;;;;-7.02;81.99;102164.25;5041137;28;20144;-64
2022/11/30 10:25:57;;;;;;;39.97;23.77;;;;;;;-7.11;82.48;102142.53;5026391;28;20230;-65
2022/11/30 10:28:49;;;;;;;36.55;23.40;;;;;;;-6.98;81.46;102158.75;5026145;28;20092;-64
2022/11/30 10:31:15;;;;;;;36.00;23.05;;;;;;;-6.94;81.29;102166.69;5026063;28;20022;-66
2022/11/30 10:33:50;;;;;;;35.45;21.98;;;;;;;-6.83;82.62;102170.16;5027024;28;20048;-64
2022/11/30 10:36:37;;;;;;;39.28;23.90;;;;;;;-6.80;81.98;102167.94;5034546;28;20021;-64
2022/11/30 10:39:09;;;;;;;40.42;24.20;;;;;;;-6.72;82.67;102172.78;5032058;28;20029;-65
2022/11/30 10:42:03;;;;;;;41.53;23.27;;;;;;;-6.63;81.71;102168.53;5036920;28;20044;-64
2022/11/30 10:44:39;;;;;;;41.08;24.67;;;;;;;-6.70;82.09;102136.84;5028490;28;20040;-64
2022/11/30 10:47:25;;;;;;;42.05;24.95;;;;;;;-6.64;81.67;102141.56;5026470;28;20398;-65
2022/11/30 10:49:51;;;;;;;37.88;22.70;;;;;;;-6.80;82.13;102155.34;5045454;28;20037;-64
2022/11/30 10:52:26;;;;;;;41.08;23.58;;;;;;;-6.79;81.87;102141.09;5030884;28;20296;-64
2022/11/30 10:54:54;;;;;;;39.63;23.15;;;;;;;-6.95;81.62;102137.22;5034413;28;20025;-64
2022/11/30 10:57:21;;;;;;;35.42;22.83;;;;;;;-6.73;82.04;102140.75;5039942;28;20033;-64
2022/11/30 10:59:53;;;;;;;34.45;21.63;;;;;;;-6.71;82.03;102150.22;5037540;28;20397;-65
2022/11/30 11:02:49;;;;;;;37.70;24.42;;;;;;;-6.47;80.87;102158.16;5042180;28;20052;-63
2022/11/30 11:05:28;;;;;;;37.80;23.02;;;;;;;-6.60;81.82;102138.56;5018416;28;20211;-64
2022/11/30 11:07:58;;;;;;;38.05;22.25;;;;;;;-6.47;81.68;102136.38;5025138;28;20026;-64
2022/11/30 11:10:35;;;;;;;37.20;23.00;;;;;;;-6.30;80.18;102135.31;5043155;28;20040;-65
2022/11/30 11:13:01;;;;;;;37.20;23.08;;;;;;;-6.11;79.74;102157.06;5028201;28;20341;-65
2022/11/30 11:15:29;;;;;;;38.65;23.27;;;;;;;-6.30;79.43;102139.47;5036648;28;20064;-64
2022/11/30 11:18:22;;;;;;;38.28;23.17;;;;;;;-6.31;79.88;102155.34;5034421;28;20021;-64
2022/11/30 11:20:58;;;;;;;40.00;23.17;;;;;;;-6.25;79.98;102159.28;5038719;28;20033;-65